Time;durP1;ratioP1;P1;durP2;ratioP2;P2;SDS_P1;SDS_P2;PMS_P1;PMS_P2;Temp;Humidity;BMP_temperature;BMP_pressure;BME280_temperature;BME280_humidity;BME280_pressure;Samples;Min_cycle;Max_cycle;Signal;HPM_P1;HPM_P2
2022/12/17 13:06:46;;;;;;;6.65;4.85;;;;;;;12.90;92.53;95056.13;4990616;28;21134;-63
2022/12/17 13:09:24;;;;;;;6.65;6.05;;;;;;;12.79;93.27;95055.78;4991519;28;20203;-67
2022/12/17 13:11:57;;;;;;;9.27;7.50;;;;;;;12.87;93.42;95057.97;4989816;28;20261;-66
2022/12/17 13:14:28;;;;;;;9.07;8.27;;;;;;;12.82;93.97;95044.63;4988441;28;20200;-65
2022/12/17 13:16:59;;;;;;;8.90;7.82;;;;;;;12.69;93.67;95051.94;4990212;28;20254;-62
2022/12/17 13:19:36;;;;;;;7.22;6.68;;;;;;;12.74;93.25;95041.56;4989388;28;20756;-63
2022/12/17 13:22:11;;;;;;;8.15;6.45;;;;;;;12.71;94.55;95044.22;4989976;28;20285;-60
2022/12/17 13:24:38;;;;;;;8.75;7.47;;;;;;;12.89;94.13;95049.38;4988713;28;20242;-60
2022/12/17 13:27:05;;;;;;;11.95;10.55;;;;;;;13.11;93.18;95051.03;4989257;28;20285;-64
2022/12/17 13:29:34;;;;;;;10.57;7.15;;;;;;;13.00;93.60;95048.09;4989964;28;20323;-65
2022/12/17 13:32:14;;;;;;;10.23;6.68;;;;;;;12.88;93.45;95057.09;4991300;28;20208;-65
2022/12/17 13:34:55;;;;;;;10.40;6.07;;;;;;;12.91;93.39;95057.78;4989719;28;20231;-65
2022/12/17 13:37:32;;;;;;;5.82;5.20;;;;;;;12.89;92.71;95066.41;4990063;28;21461;-63
2022/12/17 13:40:12;;;;;;;8.05;5.35;;;;;;;12.86;91.72;95067.38;4989669;28;20216;-64
2022/12/17 13:42:39;;;;;;;6.75;6.22;;;;;;;12.74;92.67;95077.25;4989132;28;20278;-64
2022/12/17 13:45:07;;;;;;;7.72;5.93;;;;;;;12.79;93.07;95081.28;4988123;28;20708;-64
2022/12/17 13:47:37;;;;;;;7.13;6.43;;;;;;;12.75;92.24;95087.38;4988565;28;20241;-62
2022/12/17 13:50:20;;;;;;;8.35;7.10;;;;;;;12.67;93.47;95080.94;4987060;28;20713;-61
2022/12/17 13:52:47;;;;;;;9.05;6.53;;;;;;;12.58;94.15;95079.63;4988186;28;20208;-65
2022/12/17 13:55:19;;;;;;;7.35;6.55;;;;;;;12.56;93.90;95076.31;4985715;28;20260;-65
2022/12/17 13:57:47;;;;;;;8.35;6.88;;;;;;;12.56;95.00;95086.50;4988344;28;20254;-62
2022/12/17 14:00:21;;;;;;;9.80;7.43;;;;;;;12.76;94.28;95076.28;4987071;28;20208;-62
2022/12/17 14:02:48;;;;;;;9.32;8.38;;;;;;;12.77;93.98;95083.06;4987590;28;20211;-61
2022/12/17 14:05:29;;;;;;;9.30;7.85;;;;;;;12.82;93.89;95086.25;4985377;28;20200;-61
2022/12/17 14:08:00;;;;;;;8.60;7.03;;;;;;;12.89;93.58;95086.81;4987761;28;20258;-62
2022/12/17 14:10:28;;;;;;;8.23;7.38;;;;;;;12.78;92.73;95094.91;4987049;28;20726;-61
2022/12/17 14:13:04;;;;;;;8.73;7.85;;;;;;;12.75;93.58;95086.56;4987548;28;20219;-64
2022/12/17 14:15:32;;;;;;;9.00;7.20;;;;;;;12.66;93.16;95094.56;4986664;28;20204;-64
2022/12/17 14:17:59;;;;;;;8.45;7.65;;;;;;;12.60;93.42;95095.69;4987350;28;20290;-63
2022/12/17 14:20:30;;;;;;;8.25;7.45;;;;;;;12.46;94.43;95105.59;4986409;28;20210;-64
2022/12/17 14:23:01;;;;;;;10.52;7.35;;;;;;;12.36;95.63;95104.31;4987844;28;20235;-61
2022/12/17 14:25:32;;;;;;;7.75;7.00;;;;;;;12.41;95.10;95104.94;4987685;28;20603;-63
2022/12/17 14:28:01;;;;;;;12.13;7.78;;;;;;;12.30;95.01;95107.09;4987270;28;20209;-65
2022/12/17 14:30:36;;;;;;;8.48;6.80;;;;;;;12.29;95.64;95105.44;4986740;28;20275;-65
2022/12/17 14:33:04;;;;;;;7.35;6.75;;;;;;;12.22;95.62;95109.94;4986358;28;20338;-61
2022/12/17 14:35:36;;;;;;;8.13;7.32;;;;;;;12.20;96.33;95107.44;4987495;28;20342;-63
2022/12/17 14:38:03;;;;;;;15.05;10.27;;;;;;;12.17;96.15;95104.19;4985725;28;20213;-63
2022/12/17 14:40:30;;;;;;;10.75;7.72;;;;;;;12.10;96.28;95111.25;4987375;28;20207;-65
2022/12/17 14:43:00;;;;;;;10.38;9.07;;;;;;;12.06;96.13;95122.44;4987619;28;20215;-63
2022/12/17 14:45:28;;;;;;;10.40;9.27;;;;;;;12.01;96.95;95126.88;4986637;28;20207;-65
2022/12/17 14:47:57;;;;;;;13.55;9.88;;;;;;;11.90;97.68;95129.81;4986801;28;20209;-62
2022/12/17 14:50:31;;;;;;;11.23;9.68;;;;;;;11.92;97.46;95127.22;4987260;28;20334;-62
2022/12/17 14:53:00;;;;;;;11.30;9.75;;;;;;;11.83;97.54;95133.50;4986868;28;20906;-66
2022/12/17 14:55:36;;;;;;;12.63;10.07;;;;;;;11.76;98.07;95143.94;4986507;28;22633;-64
2022/12/17 14:58:20;;;;;;;14.13;10.05;;;;;;;11.72;98.27;95137.28;4986566;28;20737;-62
2022/12/17 15:00:50;;;;;;;11.38;9.93;;;;;;;11.71;98.19;95143.28;4988459;28;20217;-65
2022/12/17 15:03:20;;;;;;;10.73;9.63;;;;;;;11.61;98.21;95139.41;4987679;28;20203;-63
2022/12/17 15:05:51;;;;;;;12.93;10.73;;;;;;;11.62;98.60;95146.16;4987265;28;20590;-64
2022/12/17 15:08:20;;;;;;;15.82;11.18;;;;;;;11.52;98.78;95138.84;4985303;28;20266;-64
2022/12/17 15:10:47;;;;;;;13.40;9.82;;;;;;;11.42;98.90;95134.97;4987921;28;20276;-65
2022/12/17 15:13:13;;;;;;;16.02;11.77;;;;;;;11.45;99.31;95144.22;4986370;28;20208;-63
2022/12/17 15:15:40;;;;;;;15.23;12.23;;;;;;;11.40;99.71;95149.47;4986809;28;20327;-62
2022/12/17 15:18:07;;;;;;;19.00;13.63;;;;;;;11.29;100.00;95158.38;4986070;28;20212;-61
2022/12/17 15:20:34;;;;;;;28.20;21.50;;;;;;;11.22;100.00;95160.28;4987513;28;20267;-62
2022/12/17 15:23:01;;;;;;;25.88;20.40;;;;;;;11.12;100.00;95166.59;4986786;28;20215;-63
2022/12/17 15:25:29;;;;;;;52.47;41.55;;;;;;;11.08;100.00;95172.66;4989941;28;20226;-65
2022/12/17 15:27:56;;;;;;;57.30;46.30;;;;;;;11.06;100.00;95179.50;4990197;28;20289;-63
2022/12/17 15:30:23;;;;;;;82.97;66.15;;;;;;;11.11;100.00;95178.47;4990989;28;20228;-63
2022/12/17 15:32:49;;;;;;;100.53;82.32;;;;;;;11.04;100.00;95176.19;4989750;28;20693;-65
2022/12/17 15:35:16;;;;;;;116.35;86.85;;;;;;;11.02;100.00;95173.69;4991994;28;20261;-65
2022/12/17 15:37:43;;;;;;;125.93;96.35;;;;;;;10.91;100.00;95174.03;4991242;28;20261;-65
2022/12/17 15:40:10;;;;;;;124.47;95.63;;;;;;;10.81;100.00;95182.84;4991033;28;20209;-65
2022/12/17 15:45:24;;;;;;;118.30;95.18;;;;;;;10.77;100.00;95178.75;4990774;28;20244;-64
2022/12/17 15:47:51;;;;;;;152.38;113.95;;;;;;;10.74;100.00;95183.91;4990718;28;20203;-61
2022/12/17 15:50:19;;;;;;;156.57;112.70;;;;;;;10.73;100.00;95184.81;4991500;28;20681;-66
2022/12/17 15:52:45;;;;;;;141.48;103.47;;;;;;;10.67;100.00;95176.53;4991523;28;20220;-65
2022/12/17 15:55:12;;;;;;;128.40;100.88;;;;;;;10.58;100.00;95182.75;4991444;28;20697;-65
2022/12/17 15:57:40;;;;;;;138.07;108.22;;;;;;;10.71;100.00;95186.56;4991033;28;20227;-62
2022/12/17 16:00:08;;;;;;;120.68;86.70;;;;;;;10.62;100.00;95178.41;4990663;28;20213;-65
2022/12/17 16:02:35;;;;;;;103.80;75.75;;;;;;;10.47;100.00;95185.63;4991971;28;20265;-63
2022/12/17 16:05:02;;;;;;;94.43;67.35;;;;;;;10.51;100.00;95202.44;4992796;28;20212;-62
2022/12/17 16:07:28;;;;;;;80.97;58.88;;;;;;;10.51;100.00;95209.22;4989915;28;20212;-64
2022/12/17 16:09:55;;;;;;;91.68;68.40;;;;;;;10.46;100.00;95214.44;4989670;28;20208;-66
2022/12/17 16:12:22;;;;;;;93.50;69.18;;;;;;;10.42;100.00;95212.03;4990747;28;20240;-65
2022/12/17 16:14:50;;;;;;;86.40;62.53;;;;;;;10.38;100.00;95215.59;4990194;28;20231;-65
2022/12/17 16:17:17;;;;;;;90.32;66.32;;;;;;;10.45;100.00;95222.13;4990895;28;20217;-64
2022/12/17 16:19:44;;;;;;;90.32;70.53;;;;;;;10.45;100.00;95219.56;4991205;28;20684;-63
2022/12/17 16:22:10;;;;;;;84.20;57.88;;;;;;;10.37;100.00;95224.09;4992452;28;20977;-61
2022/12/17 16:24:37;;;;;;;82.93;56.15;;;;;;;10.34;100.00;95225.00;4992022;28;20208;-64
2022/12/17 16:27:04;;;;;;;80.60;58.08;;;;;;;10.34;100.00;95219.91;4991656;28;20203;-65
2022/12/17 16:29:31;;;;;;;75.22;55.47;;;;;;;10.41;100.00;95225.63;4991958;28;20259;-65
2022/12/17 16:31:59;;;;;;;80.13;56.50;;;;;;;10.44;100.00;95231.44;4991543;28;20223;-63
2022/12/17 16:34:26;;;;;;;73.30;54.70;;;;;;;10.35;100.00;95236.81;4989173;28;20246;-64
2022/12/17 16:36:53;;;;;;;104.00;71.50;;;;;;;10.19;100.00;95236.44;4989453;28;20258;-65
2022/12/17 16:39:20;;;;;;;184.75;137.05;;;;;;;10.21;100.00;95241.47;4991787;28;20211;-65
2022/12/17 16:41:47;;;;;;;198.90;149.52;;;;;;;10.21;100.00;95241.47;4991843;28;20216;-61
2022/12/17 16:44:14;;;;;;;174.70;130.95;;;;;;;10.20;100.00;95243.16;4990550;28;20317;-62
2022/12/17 16:46:42;;;;;;;197.57;147.57;;;;;;;10.13;100.00;95251.00;4990095;28;20316;-61
2022/12/17 16:49:13;;;;;;;198.95;150.32;;;;;;;10.15;100.00;95255.13;4989987;28;20576;-64
2022/12/17 16:51:40;;;;;;;218.23;160.48;;;;;;;10.14;100.00;95245.88;4989542;28;20783;-63
2022/12/17 16:54:08;;;;;;;226.20;176.20;;;;;;;10.14;100.00;95257.75;4989737;28;20211;-65
2022/12/17 16:56:35;;;;;;;230.15;171.43;;;;;;;10.11;100.00;95257.81;4991548;28;20262;-63
2022/12/17 16:59:03;;;;;;;232.80;170.85;;;;;;;10.17;100.00;95265.25;4989800;28;20263;-63
2022/12/17 17:01:30;;;;;;;229.55;164.70;;;;;;;10.13;100.00;95251.84;4986966;28;20209;-65
2022/12/17 17:03:57;;;;;;;206.90;153.90;;;;;;;10.18;100.00;95265.19;4986978;28;20251;-61
2022/12/17 17:06:26;;;;;;;219.02;156.52;;;;;;;10.19;100.00;95266.91;4988005;28;20215;-61
2022/12/17 17:08:53;;;;;;;211.32;158.93;;;;;;;10.21;100.00;95266.84;4988830;28;20718;-65
2022/12/17 17:11:21;;;;;;;236.27;172.40;;;;;;;10.22;100.00;95266.81;4987244;28;20290;-62
2022/12/17 17:13:49;;;;;;;247.43;180.65;;;;;;;10.21;100.00;95274.47;4986755;28;20204;-65
2022/12/17 17:16:17;;;;;;;242.27;172.15;;;;;;;10.20;100.00;95277.91;4989761;28;20227;-63
2022/12/17 17:18:44;;;;;;;247.15;171.55;;;;;;;10.17;100.00;95281.31;4986401;28;20211;-64
2022/12/17 17:21:26;;;;;;;256.83;187.63;;;;;;;10.18;100.00;95285.53;4987193;28;20686;-65
2022/12/17 17:23:56;;;;;;;395.15;285.80;;;;;;;9.87;100.00;95288.09;4986524;28;20299;-65
2022/12/17 17:26:23;;;;;;;337.17;238.15;;;;;;;9.79;100.00;95290.00;4987679;28;20568;-65
2022/12/17 17:28:50;;;;;;;297.77;209.23;;;;;;;9.66;100.00;95301.34;4987942;28;20211;-65
2022/12/17 17:31:17;;;;;;;302.55;206.70;;;;;;;9.64;100.00;95299.75;4987831;28;20215;-62
2022/12/17 17:33:47;;;;;;;327.27;238.27;;;;;;;9.74;100.00;95304.53;4986876;28;20309;-63
2022/12/17 17:36:17;;;;;;;325.52;220.68;;;;;;;9.79;100.00;95305.25;4988946;28;20215;-63
2022/12/17 17:38:49;;;;;;;291.27;198.88;;;;;;;9.81;100.00;95312.81;4988222;28;20286;-63
2022/12/17 17:41:18;;;;;;;300.27;207.65;;;;;;;9.76;100.00;95322.25;4988282;28;20265;-62
2022/12/17 17:43:45;;;;;;;303.15;205.52;;;;;;;9.82;100.00;95311.94;4986870;28;20874;-64
2022/12/17 17:46:14;;;;;;;284.65;191.13;;;;;;;9.82;100.00;95327.16;4988982;28;20756;-66
2022/12/17 17:48:41;;;;;;;242.40;164.25;;;;;;;9.88;100.00;95325.31;4986758;28;21496;-66
2022/12/17 17:51:10;;;;;;;284.88;202.63;;;;;;;9.85;100.00;95322.00;4986795;28;20776;-61
2022/12/17 17:53:37;;;;;;;246.05;162.77;;;;;;;9.86;100.00;95344.00;4987065;28;20208;-66
2022/12/17 17:56:13;;;;;;;226.77;154.20;;;;;;;9.75;100.00;95335.81;4988677;28;20200;-64
2022/12/17 17:58:41;;;;;;;229.63;155.75;;;;;;;9.75;100.00;95340.88;4987207;28;20232;-62
2022/12/17 18:01:09;;;;;;;203.98;142.15;;;;;;;9.93;100.00;95348.00;4988972;28;20204;-61
2022/12/17 18:03:36;;;;;;;174.77;110.38;;;;;;;9.92;100.00;95348.88;4988608;28;20282;-66
2022/12/17 18:06:04;;;;;;;133.63;87.45;;;;;;;9.93;100.00;95352.25;4988091;28;20195;-61
2022/12/17 18:08:31;;;;;;;118.90;80.50;;;;;;;9.95;100.00;95361.50;4987794;28;20860;-65
2022/12/17 18:11:00;;;;;;;105.95;67.22;;;;;;;9.89;100.00;95356.59;4985989;28;20207;-65
2022/12/17 18:16:13;;;;;;;101.45;62.88;;;;;;;9.88;100.00;95372.72;4986672;28;23227;-67
2022/12/17 18:18:40;;;;;;;95.07;61.65;;;;;;;9.76;100.00;95385.69;4987169;28;20207;-62
2022/12/17 18:21:10;;;;;;;94.22;62.53;;;;;;;9.60;100.00;95379.34;4987203;28;20199;-67
2022/12/17 18:23:37;;;;;;;100.05;62.75;;;;;;;9.58;100.00;95402.22;4986289;28;20204;-66
2022/12/17 18:26:08;;;;;;;96.28;61.95;;;;;;;9.45;100.00;95394.06;4985277;28;20200;-64
2022/12/17 18:28:37;;;;;;;99.78;59.38;;;;;;;9.47;100.00;95397.38;4987673;28;20725;-65
2022/12/17 18:31:08;;;;;;;77.47;48.13;;;;;;;9.49;100.00;95400.72;4987254;28;20207;-64
2022/12/17 18:33:36;;;;;;;67.05;42.03;;;;;;;9.49;100.00;95398.19;4986205;28;20232;-66
2022/12/17 18:36:09;;;;;;;56.85;36.92;;;;;;;9.47;100.00;95399.94;4987948;28;21480;-64
2022/12/17 18:38:36;;;;;;;30.95;22.67;;;;;;;9.46;100.00;95405.88;4986465;28;21782;-64
2022/12/17 18:44:00;;;;;;;26.50;17.50;;;;;;;9.49;100.00;95407.50;4985673;28;20224;-62
2022/12/17 18:46:27;;;;;;;18.17;16.13;;;;;;;9.57;100.00;95418.31;4985357;28;20209;-67
2022/12/17 18:48:56;;;;;;;18.30;15.50;;;;;;;9.44;100.00;95402.53;4985564;28;20211;-65
2022/12/17 18:51:22;;;;;;;17.25;15.50;;;;;;;9.60;100.00;95417.41;4985930;28;20211;-66
2022/12/17 18:53:49;;;;;;;18.35;14.93;;;;;;;9.72;100.00;95427.25;4987253;28;20231;-62
2022/12/17 18:56:16;;;;;;;14.70;11.65;;;;;;;9.76;100.00;95428.84;4988563;28;20632;-65
2022/12/17 18:58:44;;;;;;;15.93;14.23;;;;;;;9.77;100.00;95435.59;4988355;28;20631;-66
2022/12/17 19:01:23;;;;;;;13.48;12.07;;;;;;;9.69;100.00;95430.69;4986535;28;20749;-65
2022/12/17 19:03:50;;;;;;;13.27;12.07;;;;;;;9.69;100.00;95437.47;4987123;28;20242;-66
2022/12/17 19:06:18;;;;;;;15.90;12.40;;;;;;;9.78;100.00;95442.34;4989112;28;20262;-67
2022/12/17 19:08:45;;;;;;;15.18;12.68;;;;;;;9.79;100.00;95449.06;4987838;28;20586;-66
2022/12/17 19:11:15;;;;;;;14.30;12.90;;;;;;;9.77;100.00;95456.72;4987130;28;22284;-67
2022/12/17 19:13:42;;;;;;;15.93;12.85;;;;;;;9.86;100.00;95460.75;4988376;28;20748;-66
2022/12/17 19:16:11;;;;;;;15.40;13.85;;;;;;;9.86;100.00;95461.59;4987966;28;20654;-67
2022/12/17 19:18:39;;;;;;;19.15;15.50;;;;;;;9.93;100.00;95469.88;4987631;28;20247;-65
2022/12/17 19:21:08;;;;;;;15.70;13.93;;;;;;;9.95;100.00;95470.66;4989346;28;20215;-63
2022/12/17 19:23:36;;;;;;;15.95;13.63;;;;;;;9.95;100.00;95467.28;4989092;28;20731;-67
2022/12/17 19:26:07;;;;;;;16.05;13.52;;;;;;;9.93;100.00;95474.94;4989121;28;20208;-64
2022/12/17 19:28:34;;;;;;;15.05;13.32;;;;;;;9.99;100.00;95476.50;4989024;28;20208;-66
2022/12/17 19:31:01;;;;;;;21.63;16.38;;;;;;;9.97;100.00;95474.00;4987215;28;20266;-67
2022/12/17 19:33:27;;;;;;;15.73;14.15;;;;;;;10.01;100.00;95479.84;4988246;28;20310;-66
2022/12/17 19:36:04;;;;;;;18.33;14.93;;;;;;;9.95;100.00;95475.75;4988925;28;22055;-67
2022/12/17 19:38:31;;;;;;;15.55;13.60;;;;;;;10.04;100.00;95488.22;4988917;28;20257;-62
2022/12/17 19:41:03;;;;;;;17.67;13.38;;;;;;;10.04;100.00;95495.84;4986693;28;20250;-66
2022/12/17 19:43:29;;;;;;;15.30;13.05;;;;;;;10.04;100.00;95489.94;4988162;28;20195;-68
2022/12/17 19:46:01;;;;;;;14.82;13.27;;;;;;;10.03;100.00;95494.19;4987392;28;20580;-64
2022/12/17 19:48:29;;;;;;;15.55;14.02;;;;;;;10.04;100.00;95490.75;4989307;28;20207;-67
2022/12/17 19:50:56;;;;;;;23.58;17.80;;;;;;;10.00;100.00;95494.25;4987191;28;20207;-65
2022/12/17 19:53:26;;;;;;;19.98;14.63;;;;;;;10.06;100.00;95500.88;4988006;28;20224;-62
2022/12/17 19:55:53;;;;;;;17.27;13.10;;;;;;;10.06;100.00;95500.88;4986628;28;20207;-65
2022/12/17 19:58:20;;;;;;;14.43;12.43;;;;;;;10.07;100.00;95495.78;4987674;28;20243;-62
2022/12/17 20:00:46;;;;;;;13.93;12.45;;;;;;;10.06;100.00;95499.19;4986628;28;20239;-65
2022/12/17 20:03:13;;;;;;;13.75;12.45;;;;;;;10.09;100.00;95498.28;4985842;28;20293;-66
2022/12/17 20:05:43;;;;;;;14.75;13.05;;;;;;;10.13;100.00;95510.88;4984856;28;20208;-65
2022/12/17 20:08:10;;;;;;;14.57;12.90;;;;;;;10.13;99.91;95515.13;4984319;28;20343;-66
2022/12/17 20:10:38;;;;;;;15.23;13.30;;;;;;;10.07;99.30;95515.25;4985757;28;20212;-62
2022/12/17 20:13:05;;;;;;;14.35;12.88;;;;;;;10.12;99.50;95524.44;4988255;28;20285;-64
2022/12/17 20:15:31;;;;;;;19.65;12.75;;;;;;;9.99;99.38;95517.13;4989443;28;20247;-66
2022/12/17 20:17:58;;;;;;;14.98;13.48;;;;;;;9.92;99.75;95534.22;4988628;28;20261;-65
2022/12/17 20:20:25;;;;;;;22.50;17.48;;;;;;;9.92;99.85;95526.59;4989545;28;20212;-65
2022/12/17 20:22:51;;;;;;;17.35;14.18;;;;;;;9.99;99.17;95545.91;4988919;28;20743;-66
2022/12/17 20:25:18;;;;;;;16.48;14.40;;;;;;;9.94;99.09;95552.78;4990542;28;20200;-65
2022/12/17 20:27:46;;;;;;;16.98;15.15;;;;;;;9.92;98.89;95546.91;4988492;28;20332;-64
2022/12/17 20:30:13;;;;;;;19.38;13.80;;;;;;;9.86;99.86;95547.91;4990958;28;20622;-67
2022/12/17 20:32:40;;;;;;;15.40;13.27;;;;;;;9.83;99.60;95554.75;4990993;28;20260;-67
2022/12/17 20:35:08;;;;;;;14.30;12.80;;;;;;;9.79;99.28;95532.84;4990977;28;20207;-67
2022/12/17 20:37:35;;;;;;;19.58;15.15;;;;;;;9.89;98.96;95557.16;4990091;28;20271;-64
2022/12/17 20:40:01;;;;;;;18.92;15.25;;;;;;;9.95;98.71;95566.31;4989903;28;20212;-64
2022/12/17 20:42:28;;;;;;;15.43;13.30;;;;;;;9.98;98.13;95561.16;4990330;28;20212;-66
2022/12/17 20:44:56;;;;;;;14.20;12.68;;;;;;;10.03;97.71;95575.44;4991305;28;20226;-67
2022/12/17 20:47:23;;;;;;;14.43;12.95;;;;;;;9.90;97.49;95574.84;4991160;28;20212;-61
2022/12/17 20:49:50;;;;;;;17.30;13.88;;;;;;;9.83;97.42;95562.38;4990482;28;20486;-61
2022/12/17 20:52:16;;;;;;;12.73;11.00;;;;;;;9.99;97.27;95589.06;4990649;28;20646;-63
2022/12/17 20:54:43;;;;;;;12.85;11.43;;;;;;;10.01;96.76;95586.50;4990819;28;20212;-63
2022/12/17 20:57:10;;;;;;;12.82;11.52;;;;;;;10.02;96.76;95594.06;4990276;28;20832;-65
2022/12/17 20:59:37;;;;;;;13.15;11.77;;;;;;;9.99;96.48;95599.22;4990955;28;20247;-68
2022/12/17 21:02:05;;;;;;;12.25;11.05;;;;;;;10.00;96.32;95600.06;4991687;28;20235;-65
2022/12/17 21:04:32;;;;;;;12.05;10.85;;;;;;;9.89;96.12;95582.53;4990560;28;20434;-63
2022/12/17 21:06:59;;;;;;;12.73;11.02;;;;;;;10.02;95.93;95605.94;4990592;28;21791;-66
2022/12/17 21:09:26;;;;;;;14.45;11.27;;;;;;;10.12;95.48;95600.63;4991702;28;20257;-65
2022/12/17 21:11:52;;;;;;;15.05;12.25;;;;;;;10.02;95.60;95606.78;4991211;28;20203;-64
2022/12/17 21:14:19;;;;;;;10.93;9.93;;;;;;;9.99;95.62;95611.06;4991585;28;20222;-61
2022/12/17 21:16:46;;;;;;;11.15;10.05;;;;;;;9.88;95.94;95612.16;4987670;28;20336;-61
2022/12/17 21:19:20;;;;;;;12.20;10.85;;;;;;;9.85;96.13;95614.78;4988865;28;20232;-63
2022/12/17 21:21:47;;;;;;;14.30;11.82;;;;;;;9.79;96.32;95609.00;4991333;28;22709;-66
2022/12/17 21:24:14;;;;;;;11.55;10.27;;;;;;;9.82;96.36;95616.53;4989737;28;20200;-64
2022/12/17 21:26:42;;;;;;;12.05;10.75;;;;;;;9.77;96.19;95623.41;4989464;28;20652;-64
2022/12/17 21:29:10;;;;;;;12.05;10.77;;;;;;;9.74;96.96;95626.84;4989094;28;20212;-64
2022/12/17 21:31:39;;;;;;;11.95;10.75;;;;;;;9.68;95.94;95608.38;4991601;28;20227;-65
2022/12/17 21:34:08;;;;;;;27.67;18.55;;;;;;;9.78;96.31;95625.91;4990145;28;20242;-63
2022/12/17 21:36:36;;;;;;;16.88;13.25;;;;;;;9.82;95.97;95637.69;4990400;28;20653;-62
2022/12/17 21:39:06;;;;;;;11.45;10.45;;;;;;;9.89;94.88;95633.31;4990551;28;20296;-65
2022/12/17 21:41:35;;;;;;;11.27;9.75;;;;;;;9.82;94.71;95641.91;4989656;28;20216;-65
2022/12/17 21:44:04;;;;;;;10.35;9.38;;;;;;;9.77;94.33;95641.19;4991047;28;20215;-65
2022/12/17 21:46:31;;;;;;;10.80;9.90;;;;;;;9.71;94.55;95643.84;4989939;28;20279;-65
2022/12/17 21:49:00;;;;;;;10.60;9.63;;;;;;;9.71;94.09;95646.38;4989601;28;20205;-65
2022/12/17 21:51:29;;;;;;;12.13;9.25;;;;;;;9.74;94.18;95642.06;4989701;28;20299;-62
2022/12/17 21:53:58;;;;;;;9.75;8.85;;;;;;;9.71;93.80;95649.75;4988887;28;20243;-63
2022/12/17 21:56:26;;;;;;;8.32;7.50;;;;;;;9.68;93.50;95659.13;4990046;28;20231;-63
2022/12/17 21:58:56;;;;;;;8.70;7.95;;;;;;;9.70;93.08;95667.53;4989036;28;21614;-64
2022/12/17 22:01:25;;;;;;;8.77;8.07;;;;;;;9.55;93.86;95661.94;4989388;28;20501;-65
2022/12/17 22:03:54;;;;;;;9.73;8.85;;;;;;;9.51;93.94;95662.84;4990169;28;20258;-62
2022/12/17 22:06:23;;;;;;;9.15;8.45;;;;;;;9.54;94.05;95667.88;4989066;28;20290;-61
2022/12/17 22:08:50;;;;;;;8.20;7.50;;;;;;;9.51;93.54;95664.56;4989932;28;20642;-63
2022/12/17 22:11:20;;;;;;;8.05;7.25;;;;;;;9.57;92.33;95666.13;4989473;28;20230;-63
2022/12/17 22:14:01;;;;;;;9.20;7.88;;;;;;;9.64;91.48;95678.69;4990077;28;20279;-63
2022/12/17 22:16:29;;;;;;;7.38;6.78;;;;;;;9.57;91.86;95678.81;4989036;28;20213;-65
2022/12/17 22:18:56;;;;;;;7.93;7.20;;;;;;;9.60;91.42;95666.91;4989998;28;20885;-62
2022/12/17 22:21:23;;;;;;;7.18;6.60;;;;;;;9.52;92.31;95667.06;4988979;28;20239;-62
2022/12/17 22:23:50;;;;;;;7.47;6.80;;;;;;;9.47;91.92;95666.31;4989834;28;20204;-61
2022/12/17 22:26:19;;;;;;;5.93;5.57;;;;;;;9.45;91.10;95673.09;4989234;28;20720;-65
2022/12/17 22:28:47;;;;;;;6.40;5.85;;;;;;;9.44;90.84;95673.13;4989405;28;20269;-63
2022/12/17 22:33:59;;;;;;;6.35;5.85;;;;;;;9.45;90.73;95692.56;4989894;28;20230;-64
2022/12/17 22:36:27;;;;;;;6.13;5.70;;;;;;;9.38;90.79;95681.72;4987875;28;22512;-64
2022/12/17 22:38:54;;;;;;;5.82;5.35;;;;;;;9.38;90.63;95680.88;4989796;28;20317;-64
2022/12/17 22:44:07;;;;;;;4.82;4.53;;;;;;;9.34;89.07;95700.41;4990736;28;20210;-64
2022/12/17 22:46:33;;;;;;;5.55;5.15;;;;;;;9.24;89.46;95703.13;4990263;28;20207;-64
2022/12/17 22:49:00;;;;;;;6.55;6.05;;;;;;;9.22;89.42;95705.69;4991540;28;20215;-61
2022/12/17 22:51:27;;;;;;;6.57;6.07;;;;;;;9.16;89.21;95698.19;4992584;28;20211;-61
2022/12/17 22:53:54;;;;;;;6.32;5.80;;;;;;;9.15;88.99;95701.59;4991800;28;20281;-60
2022/12/17 22:56:22;;;;;;;5.60;5.20;;;;;;;9.10;88.63;95706.75;4990918;28;20277;-60
2022/12/17 22:58:49;;;;;;;4.60;4.22;;;;;;;9.03;89.37;95700.09;4992179;28;20247;-64
2022/12/17 23:01:16;;;;;;;5.43;5.03;;;;;;;9.01;89.26;95706.06;4992835;28;20200;-65
2022/12/17 23:03:42;;;;;;;4.90;4.53;;;;;;;8.86;89.29;95702.94;4989366;28;20200;-64
2022/12/17 23:06:12;;;;;;;4.85;4.25;;;;;;;8.76;88.71;95721.69;4990682;28;20289;-61
2022/12/17 23:08:39;;;;;;;4.63;4.32;;;;;;;8.69;90.13;95712.50;4993304;28;20677;-61
2022/12/17 23:11:08;;;;;;;5.35;4.95;;;;;;;8.70;90.36;95711.63;4991468;28;20644;-61
2022/12/17 23:13:36;;;;;;;4.78;4.47;;;;;;;8.56;89.60;95708.50;4988287;28;20296;-65
2022/12/17 23:16:04;;;;;;;5.45;4.88;;;;;;;8.51;89.84;95723.75;4989637;28;20200;-64
2022/12/17 23:18:31;;;;;;;5.15;4.65;;;;;;;8.34;90.64;95714.75;4989014;28;20220;-61
2022/12/17 23:21:06;;;;;;;5.45;5.05;;;;;;;8.44;90.00;95734.84;4988192;28;20204;-63
2022/12/17 23:23:33;;;;;;;5.65;5.20;;;;;;;8.49;90.05;95732.22;4988352;28;20199;-66
2022/12/17 23:26:06;;;;;;;5.05;4.75;;;;;;;8.49;89.51;95740.66;4989540;28;20239;-65
2022/12/17 23:28:32;;;;;;;4.88;4.57;;;;;;;8.38;88.69;95754.38;4988559;28;20239;-65
2022/12/17 23:31:07;;;;;;;4.93;4.50;;;;;;;8.21;89.46;95746.94;4989810;28;20577;-65
2022/12/17 23:33:34;;;;;;;6.07;5.47;;;;;;;8.26;89.21;95755.31;4987635;28;20259;-62
2022/12/17 23:36:06;;;;;;;6.32;5.93;;;;;;;8.25;89.15;95762.94;4988610;28;20723;-66
2022/12/17 23:38:33;;;;;;;6.28;5.78;;;;;;;8.16;89.20;95768.97;4988112;28;20212;-63
2022/12/17 23:41:03;;;;;;;6.45;5.95;;;;;;;8.18;88.57;95774.84;4987440;28;20239;-64
2022/12/17 23:43:30;;;;;;;9.35;6.43;;;;;;;8.13;88.21;95772.38;4987540;28;20214;-65
2022/12/17 23:45:56;;;;;;;6.82;6.22;;;;;;;8.00;88.33;95788.56;4989391;28;20254;-66
2022/12/17 23:48:25;;;;;;;7.20;6.60;;;;;;;8.03;89.36;95785.16;4992147;28;20200;-64
2022/12/17 23:50:51;;;;;;;6.80;6.20;;;;;;;7.95;89.21;95785.25;4991885;28;20358;-62
2022/12/17 23:53:18;;;;;;;6.93;6.32;;;;;;;7.96;88.56;95781.88;4993648;28;20771;-64
2022/12/17 23:55:45;;;;;;;5.80;5.40;;;;;;;7.86;88.25;95787.91;4990990;28;20218;-64
2022/12/17 23:58:11;;;;;;;7.13;6.35;;;;;;;7.91;88.56;95803.88;4991447;28;20301;-65
